Terminal Aerodrome Forecast
Issued by NWS

Home | Current Version | Previous Version | Text Only | Print | Product List | Glossary On
Versions: 1 2 3 4 5 6 7 8 9 10 11 12 13 14 15
812
FTUS45 KRIW 270205 AAA
TAFBPI
TAF AMD
KBPI 270205Z 2702/2724 28007KT P6SM VCSH SCT030 BKN050
     FM271000 32014G22KT 4SM -SHSN OVC025
     FM271500 32022G32KT P6SM VCSH OVC040=

USA.gov is the U.S. government's official web portal to all federal, state and local government web resources and services.